sensor_id;sensor_type;location;lat;lon;timestamp;pressure;altitude;pressure_sealevel;temperature;humidity
52032;BME280;38044;45.148;39.604;2022-09-09T00:00:57;101621.78;;;10.86;65.71
52032;BME280;38044;45.148;39.604;2022-09-09T00:03:27;101619.34;;;10.74;65.55
52032;BME280;38044;45.148;39.604;2022-09-09T00:05:59;101596.72;;;10.60;65.84
52032;BME280;38044;45.148;39.604;2022-09-09T00:14:13;101587.03;;;10.64;66.38
52032;BME280;38044;45.148;39.604;2022-09-09T00:16:42;101608.31;;;10.76;67.21
52032;BME280;38044;45.148;39.604;2022-09-09T00:21:37;101633.06;;;10.83;67.89
52032;BME280;38044;45.148;39.604;2022-09-09T00:24:24;101603.44;;;10.73;68.82
52032;BME280;38044;45.148;39.604;2022-09-09T00:27:06;101617.72;;;10.78;68.85
52032;BME280;38044;45.148;39.604;2022-09-09T00:29:56;101635.25;;;10.96;69.10
52032;BME280;38044;45.148;39.604;2022-09-09T00:32:28;101597.81;;;10.74;69.30
52032;BME280;38044;45.148;39.604;2022-09-09T00:35:03;101595.94;;;10.75;69.64
52032;BME280;38044;45.148;39.604;2022-09-09T00:37:31;101593.78;;;10.77;69.56
52032;BME280;38044;45.148;39.604;2022-09-09T00:40:00;101609.66;;;10.83;69.54
52032;BME280;38044;45.148;39.604;2022-09-09T00:42:42;101605.38;;;10.93;70.26
52032;BME280;38044;45.148;39.604;2022-09-09T00:48:03;101577.66;;;10.72;68.56
52032;BME280;38044;45.148;39.604;2022-09-09T00:56:14;101583.00;;;10.56;69.61
52032;BME280;38044;45.148;39.604;2022-09-09T00:58:43;101533.88;;;9.98;69.30
52032;BME280;38044;45.148;39.604;2022-09-09T01:01:15;101641.91;;;10.63;69.56
52032;BME280;38044;45.148;39.604;2022-09-09T01:03:52;101651.81;;;10.57;69.83
52032;BME280;38044;45.148;39.604;2022-09-09T01:06:32;101497.19;;;9.61;70.10
52032;BME280;38044;45.148;39.604;2022-09-09T01:09:14;101550.50;;;9.95;70.72
52032;BME280;38044;45.148;39.604;2022-09-09T01:11:49;101532.16;;;9.72;70.02
52032;BME280;38044;45.148;39.604;2022-09-09T01:14:27;101619.13;;;10.23;70.51
52032;BME280;38044;45.148;39.604;2022-09-09T01:16:59;101582.75;;;9.95;70.60
52032;BME280;38044;45.148;39.604;2022-09-09T01:22:22;101645.31;;;10.43;70.81
52032;BME280;38044;45.148;39.604;2022-09-09T01:28:01;101637.47;;;10.31;70.70
52032;BME280;38044;45.148;39.604;2022-09-09T01:30:37;101633.91;;;10.21;71.20
52032;BME280;38044;45.148;39.604;2022-09-09T01:33:04;101621.81;;;10.18;71.19
52032;BME280;38044;45.148;39.604;2022-09-09T01:35:37;101613.75;;;10.23;71.63
52032;BME280;38044;45.148;39.604;2022-09-09T01:38:05;101498.16;;;9.40;71.31
52032;BME280;38044;45.148;39.604;2022-09-09T01:40:32;101641.97;;;10.21;71.49
52032;BME280;38044;45.148;39.604;2022-09-09T01:42:58;101609.09;;;10.03;71.39
52032;BME280;38044;45.148;39.604;2022-09-09T01:45:24;101462.00;;;9.05;71.21
52032;BME280;38044;45.148;39.604;2022-09-09T01:47:52;101647.59;;;10.14;71.32
52032;BME280;38044;45.148;39.604;2022-09-09T01:50:18;101648.31;;;10.04;71.56
52032;BME280;38044;45.148;39.604;2022-09-09T01:52:48;101529.44;;;9.24;71.83
52032;BME280;38044;45.148;39.604;2022-09-09T01:55:16;101624.88;;;9.89;71.51
52032;BME280;38044;45.148;39.604;2022-09-09T01:58:31;101647.97;;;10.28;71.28
52032;BME280;38044;45.148;39.604;2022-09-09T02:01:06;101642.59;;;10.28;71.16
52032;BME280;38044;45.148;39.604;2022-09-09T02:03:35;101633.59;;;10.12;70.83
52032;BME280;38044;45.148;39.604;2022-09-09T02:06:13;101642.06;;;10.31;71.74
52032;BME280;38044;45.148;39.604;2022-09-09T02:08:48;101534.75;;;9.56;72.11
52032;BME280;38044;45.148;39.604;2022-09-09T02:11:19;101606.91;;;9.95;71.28
52032;BME280;38044;45.148;39.604;2022-09-09T02:13:47;101641.44;;;10.24;71.12
52032;BME280;38044;45.148;39.604;2022-09-09T02:16:24;101654.34;;;10.22;71.08
52032;BME280;38044;45.148;39.604;2022-09-09T02:18:57;101624.13;;;9.94;71.83
52032;BME280;38044;45.148;39.604;2022-09-09T02:21:27;101514.34;;;9.13;72.00
52032;BME280;38044;45.148;39.604;2022-09-09T02:23:55;101521.59;;;9.12;72.34
52032;BME280;38044;45.148;39.604;2022-09-09T02:26:23;101651.38;;;9.76;72.88
52032;BME280;38044;45.148;39.604;2022-09-09T02:28:51;101626.28;;;9.55;72.97
52032;BME280;38044;45.148;39.604;2022-09-09T02:31:22;101637.28;;;9.53;73.20
52032;BME280;38044;45.148;39.604;2022-09-09T02:33:57;101655.38;;;9.68;73.61
52032;BME280;38044;45.148;39.604;2022-09-09T02:36:28;101507.13;;;8.81;73.22
52032;BME280;38044;45.148;39.604;2022-09-09T02:38:56;101649.78;;;9.75;73.05
52032;BME280;38044;45.148;39.604;2022-09-09T02:41:33;101629.31;;;9.68;73.44
52032;BME280;38044;45.148;39.604;2022-09-09T02:44:00;101627.56;;;9.47;72.76
52032;BME280;38044;45.148;39.604;2022-09-09T02:49:21;101645.84;;;9.50;73.65
52032;BME280;38044;45.148;39.604;2022-09-09T02:54:36;101679.25;;;9.69;73.41
52032;BME280;38044;45.148;39.604;2022-09-09T02:57:26;101669.13;;;9.77;73.55
52032;BME280;38044;45.148;39.604;2022-09-09T02:59:53;101644.25;;;9.54;72.84
52032;BME280;38044;45.148;39.604;2022-09-09T03:02:20;101537.19;;;8.83;73.10
52032;BME280;38044;45.148;39.604;2022-09-09T03:04:46;101659.56;;;9.54;73.37
52032;BME280;38044;45.148;39.604;2022-09-09T03:07:17;101645.88;;;9.55;73.46
52032;BME280;38044;45.148;39.604;2022-09-09T03:09:43;101692.00;;;9.84;73.00
52032;BME280;38044;45.148;39.604;2022-09-09T03:12:10;101683.69;;;9.86;73.32
52032;BME280;38044;45.148;39.604;2022-09-09T03:14:37;101530.09;;;8.99;72.96
52032;BME280;38044;45.148;39.604;2022-09-09T03:17:05;101691.91;;;10.11;72.79
52032;BME280;38044;45.148;39.604;2022-09-09T03:19:31;101520.13;;;9.32;72.00
52032;BME280;38044;45.148;39.604;2022-09-09T03:21:58;101634.13;;;10.09;71.63
52032;BME280;38044;45.148;39.604;2022-09-09T03:24:24;101644.13;;;10.24;71.08
52032;BME280;38044;45.148;39.604;2022-09-09T03:26:50;101644.13;;;10.24;70.99
52032;BME280;38044;45.148;39.604;2022-09-09T03:29:16;101612.88;;;10.02;71.09
52032;BME280;38044;45.148;39.604;2022-09-09T03:31:42;101711.50;;;10.54;71.59
52032;BME280;38044;45.148;39.604;2022-09-09T03:34:09;101568.09;;;9.65;71.63
52032;BME280;38044;45.148;39.604;2022-09-09T03:36:35;101713.13;;;10.55;71.88
52032;BME280;38044;45.148;39.604;2022-09-09T03:39:02;101726.66;;;10.81;72.00
52032;BME280;38044;45.148;39.604;2022-09-09T03:41:29;101679.84;;;10.72;71.70
52032;BME280;38044;45.148;39.604;2022-09-09T03:43:55;101705.78;;;11.19;70.75
52032;BME280;38044;45.148;39.604;2022-09-09T03:46:25;101724.94;;;11.63;70.37
52032;BME280;38044;45.148;39.604;2022-09-09T03:48:51;101682.66;;;11.79;69.32
52032;BME280;38044;45.148;39.604;2022-09-09T03:51:18;101689.50;;;12.42;67.84
52032;BME280;38044;45.148;39.604;2022-09-09T03:53:44;101680.59;;;12.96;65.84
52032;BME280;38044;45.148;39.604;2022-09-09T03:56:10;101691.81;;;13.87;64.03
52032;BME280;38044;45.148;39.604;2022-09-09T03:58:37;101552.06;;;13.87;62.02
52032;BME280;38044;45.148;39.604;2022-09-09T04:01:05;101611.22;;;15.45;59.58
52032;BME280;38044;45.148;39.604;2022-09-09T04:03:34;101711.22;;;17.49;55.88
52032;BME280;38044;45.148;39.604;2022-09-09T04:06:04;101713.72;;;18.96;52.49
52032;BME280;38044;45.148;39.604;2022-09-09T04:08:30;101719.00;;;20.18;49.44
52032;BME280;38044;45.148;39.604;2022-09-09T04:10:57;101715.34;;;21.36;46.89
52032;BME280;38044;45.148;39.604;2022-09-09T04:13:24;101691.16;;;22.29;44.82
52032;BME280;38044;45.148;39.604;2022-09-09T04:15:55;101701.09;;;23.27;42.40
52032;BME280;38044;45.148;39.604;2022-09-09T04:18:23;101713.22;;;23.70;41.25
52032;BME280;38044;45.148;39.604;2022-09-09T04:20:50;101675.00;;;23.77;39.78
52032;BME280;38044;45.148;39.604;2022-09-09T04:23:17;101623.53;;;23.90;39.00
52032;BME280;38044;45.148;39.604;2022-09-09T04:25:50;101715.75;;;24.73;38.20
52032;BME280;38044;45.148;39.604;2022-09-09T04:28:18;101734.47;;;24.68;37.79
52032;BME280;38044;45.148;39.604;2022-09-09T04:30:44;101712.78;;;24.82;37.55
52032;BME280;38044;45.148;39.604;2022-09-09T04:33:11;101734.50;;;25.46;36.47
52032;BME280;38044;45.148;39.604;2022-09-09T04:35:37;101680.25;;;25.46;35.84
52032;BME280;38044;45.148;39.604;2022-09-09T04:38:05;101658.50;;;25.60;34.90
52032;BME280;38044;45.148;39.604;2022-09-09T04:40:33;101663.56;;;25.81;34.71
52032;BME280;38044;45.148;39.604;2022-09-09T04:43:00;101713.63;;;26.60;33.99
52032;BME280;38044;45.148;39.604;2022-09-09T04:45:26;101720.94;;;27.09;32.77
52032;BME280;38044;45.148;39.604;2022-09-09T04:47:53;101715.00;;;27.07;32.49
52032;BME280;38044;45.148;39.604;2022-09-09T04:50:19;101717.88;;;27.51;32.23
52032;BME280;38044;45.148;39.604;2022-09-09T04:52:45;101591.81;;;26.88;31.80
52032;BME280;38044;45.148;39.604;2022-09-09T04:55:11;101761.53;;;28.72;31.37
52032;BME280;38044;45.148;39.604;2022-09-09T04:57:39;101752.00;;;28.66;31.09
52032;BME280;38044;45.148;39.604;2022-09-09T05:00:05;101782.22;;;28.96;31.39
52032;BME280;38044;45.148;39.604;2022-09-09T05:02:32;101748.69;;;29.15;30.93
52032;BME280;38044;45.148;39.604;2022-09-09T05:05:01;101758.66;;;29.34;30.38
52032;BME280;38044;45.148;39.604;2022-09-09T05:07:27;101767.41;;;29.58;29.98
52032;BME280;38044;45.148;39.604;2022-09-09T05:09:54;101741.25;;;29.41;30.16
52032;BME280;38044;45.148;39.604;2022-09-09T05:12:20;101772.13;;;29.47;30.10
52032;BME280;38044;45.148;39.604;2022-09-09T05:14:47;101785.81;;;29.04;30.51
52032;BME280;38044;45.148;39.604;2022-09-09T05:17:13;101762.22;;;28.55;31.00
52032;BME280;38044;45.148;39.604;2022-09-09T05:19:40;101680.59;;;28.23;31.02
52032;BME280;38044;45.148;39.604;2022-09-09T05:22:06;101756.56;;;29.03;30.38
52032;BME280;38044;45.148;39.604;2022-09-09T05:24:33;101676.78;;;29.44;29.75
52032;BME280;38044;45.148;39.604;2022-09-09T05:26:59;101744.81;;;30.78;28.83
52032;BME280;38044;45.148;39.604;2022-09-09T05:29:27;101669.00;;;31.02;27.75
52032;BME280;38044;45.148;39.604;2022-09-09T05:31:53;101766.81;;;32.46;26.83
52032;BME280;38044;45.148;39.604;2022-09-09T05:34:19;101671.84;;;32.03;26.30
52032;BME280;38044;45.148;39.604;2022-09-09T05:36:46;101758.47;;;32.46;25.98
52032;BME280;38044;45.148;39.604;2022-09-09T05:39:12;101744.84;;;32.14;26.83
52032;BME280;38044;45.148;39.604;2022-09-09T05:41:38;101776.41;;;31.90;25.90
52032;BME280;38044;45.148;39.604;2022-09-09T05:44:05;101752.50;;;32.03;25.51
52032;BME280;38044;45.148;39.604;2022-09-09T05:46:31;101688.53;;;31.54;25.57
52032;BME280;38044;45.148;39.604;2022-09-09T05:48:57;101753.31;;;32.00;24.85
52032;BME280;38044;45.148;39.604;2022-09-09T05:51:25;101770.06;;;32.75;24.42
52032;BME280;38044;45.148;39.604;2022-09-09T05:53:52;101766.81;;;32.81;23.55
52032;BME280;38044;45.148;39.604;2022-09-09T05:56:23;101774.63;;;32.93;23.72
52032;BME280;38044;45.148;39.604;2022-09-09T05:58:51;101773.72;;;31.75;24.41
52032;BME280;38044;45.148;39.604;2022-09-09T06:01:32;101784.19;;;32.58;23.80
52032;BME280;38044;45.148;39.604;2022-09-09T06:03:59;101749.13;;;31.74;24.01
52032;BME280;38044;45.148;39.604;2022-09-09T06:06:27;101696.97;;;31.92;23.87
52032;BME280;38044;45.148;39.604;2022-09-09T06:08:54;101774.72;;;33.20;23.03
52032;BME280;38044;45.148;39.604;2022-09-09T06:11:29;101757.66;;;33.72;23.75
52032;BME280;38044;45.148;39.604;2022-09-09T06:13:59;101787.91;;;33.74;23.71
52032;BME280;38044;45.148;39.604;2022-09-09T06:16:26;101758.34;;;33.80;23.75
52032;BME280;38044;45.148;39.604;2022-09-09T06:18:53;101698.59;;;33.27;24.58
52032;BME280;38044;45.148;39.604;2022-09-09T06:21:25;101761.06;;;33.60;24.06
52032;BME280;38044;45.148;39.604;2022-09-09T06:23:51;101764.81;;;33.46;24.29
52032;BME280;38044;45.148;39.604;2022-09-09T06:26:22;101779.75;;;33.86;22.63
52032;BME280;38044;45.148;39.604;2022-09-09T06:28:50;101729.47;;;33.67;23.30
52032;BME280;38044;45.148;39.604;2022-09-09T06:31:22;101758.72;;;33.55;23.55
52032;BME280;38044;45.148;39.604;2022-09-09T06:33:52;101743.81;;;33.92;22.64
52032;BME280;38044;45.148;39.604;2022-09-09T06:36:21;101757.94;;;34.05;22.13
52032;BME280;38044;45.148;39.604;2022-09-09T06:38:48;101749.44;;;33.89;21.11
52032;BME280;38044;45.148;39.604;2022-09-09T06:41:17;101745.28;;;33.97;20.80
52032;BME280;38044;45.148;39.604;2022-09-09T06:43:44;101745.94;;;34.08;21.19
52032;BME280;38044;45.148;39.604;2022-09-09T06:46:13;101766.75;;;33.76;21.31
52032;BME280;38044;45.148;39.604;2022-09-09T06:48:40;101661.63;;;32.95;21.48
52032;BME280;38044;45.148;39.604;2022-09-09T06:51:09;101763.53;;;34.05;21.25
52032;BME280;38044;45.148;39.604;2022-09-09T06:53:38;101765.72;;;34.61;20.49
52032;BME280;38044;45.148;39.604;2022-09-09T06:58:37;101745.47;;;35.33;20.05
52032;BME280;38044;45.148;39.604;2022-09-09T07:01:08;101763.09;;;35.66;19.71
52032;BME280;38044;45.148;39.604;2022-09-09T07:03:34;101650.16;;;33.71;21.13
52032;BME280;38044;45.148;39.604;2022-09-09T07:06:00;101740.00;;;34.06;20.56
52032;BME280;38044;45.148;39.604;2022-09-09T07:08:27;101666.63;;;33.85;20.75
52032;BME280;38044;45.148;39.604;2022-09-09T07:10:53;101776.97;;;33.86;21.31
52032;BME280;38044;45.148;39.604;2022-09-09T07:13:24;101664.88;;;33.45;21.38
52032;BME280;38044;45.148;39.604;2022-09-09T07:15:51;101748.88;;;33.74;20.81
52032;BME280;38044;45.148;39.604;2022-09-09T07:18:17;101690.63;;;33.79;20.51
52032;BME280;38044;45.148;39.604;2022-09-09T07:20:52;101741.16;;;34.92;20.97
52032;BME280;38044;45.148;39.604;2022-09-09T07:23:18;101766.16;;;34.36;21.57
52032;BME280;38044;45.148;39.604;2022-09-09T07:25:45;101673.41;;;33.61;22.19
52032;BME280;38044;45.148;39.604;2022-09-09T07:28:10;101638.81;;;32.46;21.70
52032;BME280;38044;45.148;39.604;2022-09-09T07:30:36;101702.16;;;31.86;22.86
52032;BME280;38044;45.148;39.604;2022-09-09T07:33:02;101771.81;;;31.61;23.55
52032;BME280;38044;45.148;39.604;2022-09-09T07:35:28;101757.41;;;31.81;23.83
52032;BME280;38044;45.148;39.604;2022-09-09T07:37:54;101734.63;;;32.42;23.74
52032;BME280;38044;45.148;39.604;2022-09-09T07:40:21;101691.41;;;33.56;22.43
52032;BME280;38044;45.148;39.604;2022-09-09T07:42:47;101712.50;;;34.48;22.10
52032;BME280;38044;45.148;39.604;2022-09-09T07:45:13;101744.78;;;35.45;21.50
52032;BME280;38044;45.148;39.604;2022-09-09T07:47:40;101646.63;;;35.43;20.05
52032;BME280;38044;45.148;39.604;2022-09-09T07:50:09;101736.59;;;35.54;20.03
52032;BME280;38044;45.148;39.604;2022-09-09T07:52:35;101747.06;;;35.50;20.77
52032;BME280;38044;45.148;39.604;2022-09-09T07:55:01;101637.22;;;34.64;19.70
52032;BME280;38044;45.148;39.604;2022-09-09T07:57:31;101749.19;;;35.62;18.92
52032;BME280;38044;45.148;39.604;2022-09-09T07:59:57;101742.91;;;36.07;19.06
52032;BME280;38044;45.148;39.604;2022-09-09T08:02:24;101671.75;;;35.92;18.03
52032;BME280;38044;45.148;39.604;2022-09-09T08:04:51;101736.56;;;34.82;19.87
52032;BME280;38044;45.148;39.604;2022-09-09T08:07:17;101739.91;;;33.62;21.37
52032;BME280;38044;45.148;39.604;2022-09-09T08:09:43;101730.34;;;33.87;21.28
52032;BME280;38044;45.148;39.604;2022-09-09T08:12:09;101732.03;;;34.28;20.31
52032;BME280;38044;45.148;39.604;2022-09-09T08:14:36;101623.19;;;34.48;20.59
52032;BME280;38044;45.148;39.604;2022-09-09T08:17:02;101713.88;;;34.60;21.06
52032;BME280;38044;45.148;39.604;2022-09-09T08:19:28;101716.03;;;33.34;22.17
52032;BME280;38044;45.148;39.604;2022-09-09T08:21:55;101717.13;;;32.41;23.45
52032;BME280;38044;45.148;39.604;2022-09-09T08:24:22;101680.84;;;32.18;23.79
52032;BME280;38044;45.148;39.604;2022-09-09T08:26:49;101710.41;;;32.77;24.02
52032;BME280;38044;45.148;39.604;2022-09-09T08:29:15;101694.56;;;33.04;23.93
52032;BME280;38044;45.148;39.604;2022-09-09T08:31:47;101712.19;;;33.99;22.57
52032;BME280;38044;45.148;39.604;2022-09-09T08:34:13;101690.91;;;34.52;22.51
52032;BME280;38044;45.148;39.604;2022-09-09T08:36:42;101712.28;;;34.98;21.72
52032;BME280;38044;45.148;39.604;2022-09-09T08:39:11;101716.94;;;35.05;21.03
52032;BME280;38044;45.148;39.604;2022-09-09T08:46:58;101704.22;;;34.64;20.48
52032;BME280;38044;45.148;39.604;2022-09-09T08:52:21;101713.38;;;34.45;20.54
52032;BME280;38044;45.148;39.604;2022-09-09T08:54:49;101706.22;;;34.44;20.88
52032;BME280;38044;45.148;39.604;2022-09-09T08:57:25;101653.97;;;34.64;20.58
52032;BME280;38044;45.148;39.604;2022-09-09T08:59:52;101690.34;;;34.81;20.43
52032;BME280;38044;45.148;39.604;2022-09-09T09:02:27;101697.59;;;35.14;20.19
52032;BME280;38044;45.148;39.604;2022-09-09T09:07:56;101699.25;;;35.12;20.07
52032;BME280;38044;45.148;39.604;2022-09-09T09:12:56;101705.84;;;34.42;20.13
52032;BME280;38044;45.148;39.604;2022-09-09T09:15:25;101705.34;;;34.47;19.98
52032;BME280;38044;45.148;39.604;2022-09-09T09:17:52;101679.38;;;34.30;19.57
52032;BME280;38044;45.148;39.604;2022-09-09T09:20:29;101661.00;;;34.33;19.42
52032;BME280;38044;45.148;39.604;2022-09-09T09:23:02;101610.75;;;33.46;20.34
52032;BME280;38044;45.148;39.604;2022-09-09T09:25:41;101618.78;;;33.87;20.29
52032;BME280;38044;45.148;39.604;2022-09-09T09:28:23;101684.38;;;34.39;20.53
52032;BME280;38044;45.148;39.604;2022-09-09T09:30:55;101688.47;;;34.14;19.89
52032;BME280;38044;45.148;39.604;2022-09-09T09:36:09;101598.88;;;32.87;20.68
52032;BME280;38044;45.148;39.604;2022-09-09T09:38:36;101684.81;;;33.19;20.94
52032;BME280;38044;45.148;39.604;2022-09-09T09:41:02;101603.72;;;32.83;21.52
52032;BME280;38044;45.148;39.604;2022-09-09T09:43:36;101651.56;;;33.32;21.86
52032;BME280;38044;45.148;39.604;2022-09-09T09:46:19;101673.59;;;33.74;21.33
52032;BME280;38044;45.148;39.604;2022-09-09T09:48:45;101676.69;;;33.56;21.01
52032;BME280;38044;45.148;39.604;2022-09-09T09:51:22;101682.47;;;33.41;21.21
52032;BME280;38044;45.148;39.604;2022-09-09T09:53:49;101666.75;;;33.28;20.14
52032;BME280;38044;45.148;39.604;2022-09-09T09:56:15;101590.16;;;32.58;20.68
52032;BME280;38044;45.148;39.604;2022-09-09T10:01:25;101678.16;;;33.10;21.52
52032;BME280;38044;45.148;39.604;2022-09-09T10:03:55;101686.59;;;32.72;21.91
52032;BME280;38044;45.148;39.604;2022-09-09T10:06:34;101669.66;;;32.90;22.79
52032;BME280;38044;45.148;39.604;2022-09-09T10:09:01;101655.88;;;32.48;23.00
52032;BME280;38044;45.148;39.604;2022-09-09T10:11:52;101681.28;;;32.50;23.17
52032;BME280;38044;45.148;39.604;2022-09-09T10:14:30;101671.97;;;31.40;23.51
52032;BME280;38044;45.148;39.604;2022-09-09T10:19:34;101596.84;;;29.21;25.35
52032;BME280;38044;45.148;39.604;2022-09-09T10:27:52;101630.50;;;29.52;25.76
52032;BME280;38044;45.148;39.604;2022-09-09T10:33:32;101624.84;;;28.87;26.12
52032;BME280;38044;45.148;39.604;2022-09-09T10:36:22;101654.16;;;29.10;26.14
52032;BME280;38044;45.148;39.604;2022-09-09T10:39:03;101548.75;;;28.31;28.00
52032;BME280;38044;45.148;39.604;2022-09-09T10:44:48;101648.63;;;29.03;27.55
52032;BME280;38044;45.148;39.604;2022-09-09T10:55:20;101655.41;;;29.16;26.62
52032;BME280;38044;45.148;39.604;2022-09-09T10:57:53;101630.38;;;28.94;26.18
52032;BME280;38044;45.148;39.604;2022-09-09T11:00:40;101634.69;;;28.81;26.71
52032;BME280;38044;45.148;39.604;2022-09-09T11:03:22;101650.53;;;28.91;26.73
52032;BME280;38044;45.148;39.604;2022-09-09T11:06:14;101643.81;;;28.85;26.19
52032;BME280;38044;45.148;39.604;2022-09-09T11:08:42;101629.81;;;28.49;27.06
52032;BME280;38044;45.148;39.604;2022-09-09T11:11:27;101576.34;;;28.20;28.03
52032;BME280;38044;45.148;39.604;2022-09-09T11:14:08;101631.63;;;28.20;27.38
52032;BME280;38044;45.148;39.604;2022-09-09T11:16:42;101586.53;;;27.50;27.52
52032;BME280;38044;45.148;39.604;2022-09-09T11:19:35;101601.84;;;27.44;27.81
52032;BME280;38044;45.148;39.604;2022-09-09T11:22:39;101592.56;;;27.18;28.78
52032;BME280;38044;45.148;39.604;2022-09-09T11:25:16;101485.78;;;26.48;28.35
52032;BME280;38044;45.148;39.604;2022-09-09T11:27:53;101623.13;;;27.40;28.30
52032;BME280;38044;45.148;39.604;2022-09-09T11:33:12;101508.75;;;26.93;27.78
52032;BME280;38044;45.148;39.604;2022-09-09T11:36:05;101595.41;;;27.29;27.80
52032;BME280;38044;45.148;39.604;2022-09-09T11:38:45;101614.50;;;27.45;28.35
52032;BME280;38044;45.148;39.604;2022-09-09T11:41:12;101587.28;;;27.06;28.04
52032;BME280;38044;45.148;39.604;2022-09-09T11:43:45;101594.47;;;27.14;28.19
52032;BME280;38044;45.148;39.604;2022-09-09T11:46:13;101603.38;;;27.38;28.35
52032;BME280;38044;45.148;39.604;2022-09-09T11:48:45;101587.53;;;27.28;28.41
52032;BME280;38044;45.148;39.604;2022-09-09T11:53:58;101606.66;;;27.51;28.59
52032;BME280;38044;45.148;39.604;2022-09-09T11:56:33;101581.94;;;26.87;28.55
52032;BME280;38044;45.148;39.604;2022-09-09T11:59:05;101566.09;;;26.77;28.32
52032;BME280;38044;45.148;39.604;2022-09-09T12:01:44;101568.44;;;26.74;28.74
52032;BME280;38044;45.148;39.604;2022-09-09T12:04:30;101575.75;;;26.97;28.03
52032;BME280;38044;45.148;39.604;2022-09-09T12:07:25;101538.94;;;26.79;28.08
52032;BME280;38044;45.148;39.604;2022-09-09T12:10:02;101583.63;;;26.95;28.50
52032;BME280;38044;45.148;39.604;2022-09-09T12:12:47;101461.59;;;26.31;28.81
52032;BME280;38044;45.148;39.604;2022-09-09T12:17:43;101450.06;;;26.21;28.25
52032;BME280;38044;45.148;39.604;2022-09-09T12:26:06;101578.59;;;27.04;27.90
52032;BME280;38044;45.148;39.604;2022-09-09T12:29:10;101574.22;;;26.62;28.89
52032;BME280;38044;45.148;39.604;2022-09-09T12:32:00;101575.38;;;26.31;28.13
52032;BME280;38044;45.148;39.604;2022-09-09T12:39:45;101469.00;;;25.66;29.36
52032;BME280;38044;45.148;39.604;2022-09-09T12:42:19;101556.59;;;26.40;28.85
52032;BME280;38044;45.148;39.604;2022-09-09T12:45:14;101565.50;;;26.60;28.88
52032;BME280;38044;45.148;39.604;2022-09-09T12:47:51;101484.69;;;25.89;29.07
52032;BME280;38044;45.148;39.604;2022-09-09T12:50:22;101579.88;;;26.13;29.49
52032;BME280;38044;45.148;39.604;2022-09-09T12:52:53;101562.13;;;25.83;29.83
52032;BME280;38044;45.148;39.604;2022-09-09T12:55:31;101464.84;;;25.23;28.83
52032;BME280;38044;45.148;39.604;2022-09-09T12:58:00;101574.09;;;25.95;30.05
52032;BME280;38044;45.148;39.604;2022-09-09T13:00:30;101546.53;;;25.95;29.41
52032;BME280;38044;45.148;39.604;2022-09-09T13:03:02;101549.91;;;26.11;29.45
52032;BME280;38044;45.148;39.604;2022-09-09T13:05:37;101569.09;;;26.34;29.12
52032;BME280;38044;45.148;39.604;2022-09-09T13:08:06;101536.75;;;25.97;29.21
52032;BME280;38044;45.148;39.604;2022-09-09T13:10:36;101532.84;;;25.98;29.53
52032;BME280;38044;45.148;39.604;2022-09-09T13:13:10;101573.50;;;26.09;29.13
52032;BME280;38044;45.148;39.604;2022-09-09T13:15:38;101538.16;;;25.61;28.89
52032;BME280;38044;45.148;39.604;2022-09-09T13:18:07;101564.47;;;25.58;29.31
52032;BME280;38044;45.148;39.604;2022-09-09T13:20:37;101561.31;;;25.33;29.24
52032;BME280;38044;45.148;39.604;2022-09-09T13:23:03;101566.38;;;25.31;29.80
52032;BME280;38044;45.148;39.604;2022-09-09T13:25:29;101565.34;;;25.39;29.33
52032;BME280;38044;45.148;39.604;2022-09-09T13:30:32;101582.09;;;25.80;30.00
52032;BME280;38044;45.148;39.604;2022-09-09T13:35:48;101463.22;;;25.45;28.92
52032;BME280;38044;45.148;39.604;2022-09-09T13:38:16;101583.03;;;26.15;29.11
52032;BME280;38044;45.148;39.604;2022-09-09T13:40:56;101580.78;;;26.24;28.91
52032;BME280;38044;45.148;39.604;2022-09-09T13:43:24;101577.91;;;26.13;29.03
52032;BME280;38044;45.148;39.604;2022-09-09T13:45:56;101525.81;;;25.78;29.56
52032;BME280;38044;45.148;39.604;2022-09-09T13:48:24;101548.50;;;25.68;30.10
52032;BME280;38044;45.148;39.604;2022-09-09T13:50:55;101562.22;;;25.64;30.04
52032;BME280;38044;45.148;39.604;2022-09-09T13:53:21;101571.69;;;25.44;30.02
52032;BME280;38044;45.148;39.604;2022-09-09T13:55:47;101545.22;;;25.12;30.11
52032;BME280;38044;45.148;39.604;2022-09-09T13:58:16;101574.84;;;25.00;30.67
52032;BME280;38044;45.148;39.604;2022-09-09T14:00:47;101570.06;;;24.97;29.94
52032;BME280;38044;45.148;39.604;2022-09-09T14:03:13;101557.22;;;24.81;29.78
52032;BME280;38044;45.148;39.604;2022-09-09T14:05:39;101572.91;;;24.81;30.01
52032;BME280;38044;45.148;39.604;2022-09-09T14:08:06;101565.84;;;24.60;30.28
52032;BME280;38044;45.148;39.604;2022-09-09T14:10:33;101459.22;;;23.72;30.46
52032;BME280;38044;45.148;39.604;2022-09-09T14:16:23;101530.84;;;24.02;31.76
52032;BME280;38044;45.148;39.604;2022-09-09T14:18:49;101543.41;;;24.03;31.99
52032;BME280;38044;45.148;39.604;2022-09-09T14:21:15;101548.50;;;24.01;30.73
52032;BME280;38044;45.148;39.604;2022-09-09T14:23:41;101532.25;;;23.77;30.95
52032;BME280;38044;45.148;39.604;2022-09-09T14:26:08;101480.50;;;23.28;30.80
52032;BME280;38044;45.148;39.604;2022-09-09T14:28:35;101530.91;;;23.55;31.00
52032;BME280;38044;45.148;39.604;2022-09-09T14:31:03;101564.91;;;23.66;31.27
52032;BME280;38044;45.148;39.604;2022-09-09T14:33:29;101562.78;;;23.59;31.65
52032;BME280;38044;45.148;39.604;2022-09-09T14:35:57;101469.78;;;22.91;31.79
52032;BME280;38044;45.148;39.604;2022-09-09T14:38:23;101566.97;;;23.53;30.72